createdAt,value
2017-08-03T00:01:42.472Z,41.30
2017-08-03T00:04:10.313Z,26.47
2017-08-03T00:06:38.127Z,31.47
2017-08-03T00:09:06.212Z,24.97
2017-08-03T00:11:33.919Z,24.97
2017-08-03T00:14:01.709Z,31.67
2017-08-03T00:16:29.485Z,30.30
2017-08-03T00:18:57.225Z,26.83
2017-08-03T00:21:24.867Z,26.60
2017-08-03T00:23:52.768Z,24.53
2017-08-03T00:26:20.433Z,28.63
2017-08-03T00:28:48.247Z,26.30
2017-08-03T00:31:17.015Z,25.70
2017-08-03T00:33:44.708Z,27.07
2017-08-03T00:36:12.402Z,29.67
2017-08-03T00:38:40.088Z,26.53
2017-08-03T00:41:07.810Z,26.17
2017-08-03T00:43:35.475Z,26.63
2017-08-03T00:46:03.155Z,23.97
2017-08-03T00:48:30.896Z,34.97
2017-08-03T00:50:58.549Z,28.47
2017-08-03T00:53:26.342Z,33.60
2017-08-03T00:55:54.092Z,33.23
2017-08-03T00:58:21.798Z,31.17
2017-08-03T01:00:49.880Z,29.43
2017-08-03T01:03:17.821Z,31.73
2017-08-03T01:05:45.480Z,28.20
2017-08-03T01:08:13.212Z,30.63
2017-08-03T01:10:41.844Z,32.97
2017-08-03T01:13:09.549Z,31.57
2017-08-03T01:15:37.275Z,37.07
2017-08-03T01:18:04.927Z,39.97
2017-08-03T01:20:32.608Z,30.53
2017-08-03T01:23:00.365Z,33.87
2017-08-03T01:25:28.158Z,30.33
2017-08-03T01:27:55.758Z,28.10
2017-08-03T01:30:23.476Z,29.93
2017-08-03T01:32:51.146Z,26.57
2017-08-03T01:35:18.751Z,28.57
2017-08-03T01:37:46.483Z,26.90
2017-08-03T01:40:14.142Z,30.27
2017-08-03T01:42:41.982Z,28.60
2017-08-03T01:45:10.024Z,26.93
2017-08-03T01:47:37.677Z,31.10
2017-08-03T01:50:05.294Z,29.00
2017-08-03T01:52:32.962Z,26.27
2017-08-03T01:55:00.546Z,32.00
2017-08-03T01:57:28.150Z,29.53
2017-08-03T01:59:56.248Z,28.80
2017-08-03T02:02:23.891Z,26.23
2017-08-03T02:04:51.620Z,26.33
2017-08-03T02:07:19.823Z,25.20
2017-08-03T02:09:47.582Z,27.30
2017-08-03T02:12:15.276Z,29.43
2017-08-03T02:14:42.996Z,26.13
2017-08-03T02:17:10.590Z,32.60
2017-08-03T02:19:38.319Z,25.90
2017-08-03T02:22:05.955Z,26.37
2017-08-03T02:24:35.487Z,22.67
2017-08-03T02:27:03.404Z,27.63
2017-08-03T02:29:31.098Z,26.50
2017-08-03T02:31:59.710Z,23.33
2017-08-03T02:34:27.432Z,30.83
2017-08-03T02:36:55.117Z,28.17
2017-08-03T02:39:22.793Z,32.47
2017-08-03T02:41:50.541Z,31.53
2017-08-03T02:44:19.180Z,31.00
2017-08-03T02:46:46.844Z,37.47
2017-08-03T02:49:14.591Z,31.20
2017-08-03T02:51:42.478Z,38.13
2017-08-03T02:54:10.176Z,29.53
2017-08-03T02:56:38.003Z,32.03
2017-08-03T02:59:05.963Z,39.73
2017-08-03T03:01:33.601Z,30.97
2017-08-03T03:04:01.550Z,40.40
2017-08-03T03:06:29.642Z,36.03
2017-08-03T03:08:57.300Z,31.33
2017-08-03T03:11:25.268Z,40.83
2017-08-03T03:13:52.910Z,35.57
2017-08-03T03:16:20.836Z,39.20
2017-08-03T03:18:51.961Z,32.00
2017-08-03T03:21:20.244Z,31.47
2017-08-03T03:23:48.103Z,40.40
2017-08-03T03:26:15.761Z,32.67
2017-08-03T03:28:43.496Z,35.67
2017-08-03T03:31:11.435Z,34.50
2017-08-03T03:33:39.136Z,35.67
2017-08-03T03:36:07.172Z,33.27
2017-08-03T03:38:34.914Z,28.90
2017-08-03T03:41:02.670Z,36.83
2017-08-03T03:43:30.728Z,44.00
2017-08-03T03:45:58.351Z,39.77
2017-08-03T03:48:26.310Z,26.70
2017-08-03T03:50:55.215Z,31.30
2017-08-03T03:53:23.136Z,32.50
2017-08-03T03:55:51.476Z,27.27
2017-08-03T03:58:21.142Z,34.07
2017-08-03T04:00:49.361Z,27.70
2017-08-03T04:03:17.180Z,42.00
2017-08-03T04:05:45.149Z,32.17
2017-08-03T04:08:12.852Z,29.43
2017-08-03T04:10:40.712Z,28.67
2017-08-03T04:13:08.638Z,32.33
2017-08-03T04:15:36.277Z,28.43
2017-08-03T04:18:03.886Z,35.60
2017-08-03T04:20:31.747Z,34.97
2017-08-03T04:22:59.470Z,28.20
2017-08-03T04:25:27.095Z,25.07
2017-08-03T04:27:54.856Z,27.00
2017-08-03T04:30:22.444Z,24.20
2017-08-03T04:32:50.103Z,32.53
2017-08-03T04:35:18.201Z,29.33
2017-08-03T04:37:45.857Z,33.53
2017-08-03T04:40:13.737Z,29.07
2017-08-03T04:42:41.456Z,28.03
2017-08-03T04:45:09.083Z,27.20
2017-08-03T04:47:36.685Z,28.30
2017-08-03T04:50:04.303Z,29.53
2017-08-03T04:52:58.924Z,25.87
2017-08-03T04:55:26.666Z,24.30
2017-08-03T04:57:54.568Z,34.73
2017-08-03T05:00:22.251Z,30.33
2017-08-03T05:02:49.812Z,27.37
2017-08-03T05:05:17.420Z,24.30
2017-08-03T05:07:44.965Z,24.67
2017-08-03T05:10:21.239Z,27.80
2017-08-03T05:15:29.022Z,26.20
2017-08-03T05:17:56.775Z,23.37
2017-08-03T05:20:24.426Z,21.40
2017-08-03T05:22:52.410Z,24.10
2017-08-03T05:25:20.036Z,22.53
2017-08-03T05:27:47.775Z,21.33
2017-08-03T05:30:15.665Z,24.07
2017-08-03T05:32:43.346Z,25.73
2017-08-03T05:35:12.087Z,27.43
2017-08-03T05:37:39.987Z,21.03
2017-08-03T05:40:07.577Z,20.40
2017-08-03T05:42:37.448Z,23.60
2017-08-03T05:45:05.308Z,20.67
2017-08-03T05:47:41.430Z,22.70
2017-08-03T05:50:09.766Z,18.67
2017-08-03T05:52:37.622Z,21.73
2017-08-03T05:55:05.461Z,19.83
2017-08-03T05:57:33.380Z,21.80
2017-08-03T06:00:06.016Z,18.23
2017-08-03T06:02:35.433Z,21.57
2017-08-03T06:05:03.207Z,17.80
2017-08-03T06:07:31.106Z,26.53
2017-08-03T06:09:59.210Z,21.20
2017-08-03T06:12:26.983Z,20.27
2017-08-03T06:14:54.722Z,20.90
2017-08-03T06:17:22.624Z,20.30
2017-08-03T06:19:52.309Z,21.83
2017-08-03T06:22:24.164Z,18.20
2017-08-03T06:24:51.897Z,20.20
2017-08-03T06:27:28.983Z,21.10
2017-08-03T06:29:58.895Z,20.80
2017-08-03T06:32:29.291Z,22.83
2017-08-03T06:34:57.249Z,18.67
2017-08-03T06:37:25.982Z,19.60
2017-08-03T06:39:54.316Z,19.67
2017-08-03T06:42:22.372Z,25.80
2017-08-03T06:44:50.340Z,22.63
2017-08-03T06:47:18.830Z,17.70
2017-08-03T06:49:46.649Z,18.20
2017-08-03T06:52:14.616Z,24.57
2017-08-03T06:54:42.716Z,20.60
2017-08-03T06:57:10.451Z,25.93
2017-08-03T07:02:41.545Z,21.43
2017-08-03T07:05:09.785Z,19.87
2017-08-03T07:07:46.713Z,22.30
2017-08-03T07:10:15.613Z,26.17
2017-08-03T07:12:43.741Z,23.50
2017-08-03T07:17:49.221Z,27.23
2017-08-03T07:20:17.052Z,26.40
2017-08-03T07:22:44.846Z,23.70
2017-08-03T07:25:12.951Z,16.53
2017-08-03T07:27:41.268Z,21.30
2017-08-03T07:30:09.116Z,30.87
2017-08-03T07:32:36.948Z,20.20
2017-08-03T07:35:05.646Z,26.33
2017-08-03T07:37:35.621Z,26.03
2017-08-03T07:40:03.562Z,23.97
2017-08-03T07:42:31.761Z,18.80
2017-08-03T07:44:59.491Z,17.37
2017-08-03T07:47:27.103Z,19.70
2017-08-03T07:49:54.868Z,21.63
2017-08-03T08:00:56.509Z,23.90
2017-08-03T08:03:24.351Z,21.17
2017-08-03T08:05:52.566Z,28.33
2017-08-03T08:08:20.340Z,29.17
2017-08-03T08:10:48.022Z,19.93
2017-08-03T08:13:16.691Z,22.90
2017-08-03T08:15:44.733Z,25.37
2017-08-03T08:18:12.459Z,19.83
2017-08-03T08:20:40.157Z,24.13
2017-08-03T08:23:07.882Z,19.33
2017-08-03T08:25:35.493Z,24.00
2017-08-03T08:28:03.256Z,29.43
2017-08-03T08:30:35.212Z,25.73
2017-08-03T08:33:03.091Z,18.87
2017-08-03T08:35:31.931Z,23.43
2017-08-03T08:38:00.007Z,20.73
2017-08-03T08:40:27.633Z,27.03
2017-08-03T08:42:55.256Z,24.23
2017-08-03T08:45:23.606Z,25.50
2017-08-03T08:47:51.340Z,19.93
2017-08-03T08:50:18.943Z,21.00
2017-08-03T08:52:46.877Z,28.00
2017-08-03T08:55:15.160Z,23.30
2017-08-03T08:57:42.769Z,23.73
2017-08-03T09:00:10.703Z,19.63
2017-08-03T09:02:38.557Z,21.40
2017-08-03T09:05:06.411Z,29.23
2017-08-03T09:07:34.188Z,22.30
2017-08-03T09:10:02.276Z,29.20
2017-08-03T09:12:29.870Z,19.10
2017-08-03T09:14:57.482Z,18.97
2017-08-03T09:17:25.199Z,19.90
2017-08-03T09:19:52.951Z,17.20
2017-08-03T09:22:20.556Z,24.93
2017-08-03T09:24:48.259Z,18.33
2017-08-03T09:27:15.973Z,15.60
2017-08-03T09:29:43.557Z,21.03
2017-08-03T09:32:11.457Z,20.73
2017-08-03T09:34:39.268Z,21.60
2017-08-03T09:37:07.000Z,18.43
2017-08-03T09:39:34.778Z,18.97
2017-08-03T09:42:20.562Z,22.53
2017-08-03T09:44:49.202Z,15.53
2017-08-03T09:47:17.567Z,26.30
2017-08-03T09:49:45.473Z,25.47
2017-08-03T09:52:13.152Z,18.30
2017-08-03T09:54:40.762Z,25.30
2017-08-03T09:57:08.746Z,18.77
2017-08-03T09:59:36.469Z,20.17
2017-08-03T10:02:04.130Z,23.47
2017-08-03T10:04:31.842Z,19.23
2017-08-03T10:07:00.641Z,15.37
2017-08-03T10:09:29.755Z,20.23
2017-08-03T10:11:57.404Z,22.83
2017-08-03T10:14:25.068Z,17.93
2017-08-03T10:16:52.909Z,16.67
2017-08-03T10:19:20.853Z,17.90
2017-08-03T10:21:48.937Z,19.90
2017-08-03T10:24:16.642Z,19.83
2017-08-03T10:26:46.429Z,23.90
2017-08-03T10:29:20.917Z,21.90
2017-08-03T10:31:48.872Z,20.87
2017-08-03T10:34:18.012Z,21.17
2017-08-03T10:36:45.905Z,20.43
2017-08-03T10:39:15.500Z,17.93
2017-08-03T10:42:01.333Z,20.17
2017-08-03T10:44:32.718Z,20.10
2017-08-03T10:47:00.748Z,21.13
2017-08-03T10:49:29.588Z,19.80
2017-08-03T10:51:57.168Z,15.87
2017-08-03T10:54:25.026Z,19.63
2017-08-03T10:56:52.891Z,15.93
2017-08-03T10:59:20.642Z,23.57
2017-08-03T11:01:48.358Z,22.20
2017-08-03T11:04:16.101Z,16.50
2017-08-03T11:06:43.731Z,18.17
2017-08-03T11:09:11.344Z,16.37
2017-08-03T11:11:39.233Z,20.03
2017-08-03T11:14:06.885Z,19.83
2017-08-03T11:16:34.555Z,15.70
2017-08-03T11:19:02.744Z,20.20
2017-08-03T11:21:30.447Z,18.20
2017-08-03T11:23:58.265Z,18.43
2017-08-03T11:26:25.998Z,22.13
2017-08-03T11:28:54.085Z,18.83
2017-08-03T11:31:21.870Z,25.23
2017-08-03T11:33:49.621Z,19.33
2017-08-03T11:36:17.281Z,17.50
2017-08-03T11:38:44.968Z,18.17
2017-08-03T11:41:12.655Z,25.13
2017-08-03T11:43:40.797Z,23.17
2017-08-03T11:46:09.095Z,19.03
2017-08-03T11:48:36.796Z,17.87
2017-08-03T11:51:04.735Z,20.30
2017-08-03T11:53:32.562Z,16.93
2017-08-03T11:56:00.681Z,22.00
2017-08-03T11:58:28.421Z,23.80
2017-08-03T12:00:56.038Z,19.53
2017-08-03T12:03:24.152Z,17.00
2017-08-03T12:05:51.935Z,23.17
2017-08-03T12:08:19.583Z,23.13
2017-08-03T12:10:47.461Z,24.50
2017-08-03T12:13:15.075Z,26.33
2017-08-03T12:15:42.704Z,19.87
2017-08-03T12:18:11.043Z,18.33
2017-08-03T12:20:38.691Z,21.93
2017-08-03T12:23:06.306Z,22.00
2017-08-03T12:28:07.135Z,18.13
2017-08-03T12:30:34.769Z,17.90
2017-08-03T12:33:02.381Z,19.97
2017-08-03T12:35:29.969Z,18.70
2017-08-03T12:37:57.682Z,32.10
2017-08-03T12:40:28.613Z,32.33
2017-08-03T12:42:56.254Z,18.27
2017-08-03T12:45:23.805Z,22.20
2017-08-03T12:47:51.404Z,26.63
2017-08-03T12:50:18.964Z,20.60
2017-08-03T12:52:46.508Z,22.43
2017-08-03T12:55:14.094Z,27.23
2017-08-03T12:57:41.820Z,23.77
2017-08-03T13:00:09.429Z,22.40
2017-08-03T13:02:37.422Z,20.73
2017-08-03T13:05:04.993Z,23.90
2017-08-03T13:07:32.548Z,21.53
2017-08-03T13:10:00.181Z,13.23
2017-08-03T13:12:27.883Z,11.90
2017-08-03T13:14:55.490Z,14.43
2017-08-03T13:17:23.475Z,14.43
2017-08-03T13:19:51.024Z,11.67
2017-08-03T13:22:18.627Z,20.90
2017-08-03T13:24:46.278Z,18.70
2017-08-03T13:27:13.957Z,16.33
2017-08-03T13:29:41.538Z,16.90
2017-08-03T13:32:09.154Z,14.67
2017-08-03T13:34:36.711Z,13.30
2017-08-03T13:37:04.333Z,17.80
2017-08-03T13:39:32.139Z,14.37
2017-08-03T13:41:59.859Z,11.43
2017-08-03T13:44:27.866Z,13.27
2017-08-03T13:46:55.748Z,16.50
2017-08-03T13:49:23.445Z,15.93
2017-08-03T13:51:51.160Z,17.97
2017-08-03T13:54:19.653Z,11.80
2017-08-03T13:56:47.470Z,14.87
2017-08-03T13:59:15.218Z,14.53
2017-08-03T14:01:43.315Z,9.57
2017-08-03T14:04:12.222Z,15.17
2017-08-03T14:06:40.066Z,12.50
2017-08-03T14:09:07.676Z,14.43
2017-08-03T14:11:35.200Z,18.43
2017-08-03T14:14:02.762Z,10.53
2017-08-03T14:16:30.679Z,14.40
2017-08-03T14:18:58.297Z,10.47
2017-08-03T14:21:25.894Z,16.67
2017-08-03T14:23:56.095Z,18.80
2017-08-03T14:26:23.853Z,15.13
2017-08-03T14:28:51.558Z,15.77
2017-08-03T14:31:19.519Z,13.07
2017-08-03T14:33:47.132Z,15.13
2017-08-03T14:36:15.244Z,13.27
2017-08-03T14:38:42.905Z,16.37
2017-08-03T14:41:10.544Z,10.30
2017-08-03T14:43:38.496Z,15.10
2017-08-03T14:46:06.258Z,12.97
2017-08-03T14:48:34.147Z,18.80
2017-08-03T14:51:02.005Z,12.83
2017-08-03T14:53:29.768Z,13.60
2017-08-03T14:55:57.530Z,11.90
2017-08-03T14:58:25.400Z,18.27
2017-08-03T15:00:53.210Z,17.73
2017-08-03T15:03:20.965Z,13.10
2017-08-03T15:05:48.863Z,15.77
2017-08-03T15:08:16.571Z,15.10
2017-08-03T15:10:44.313Z,12.10
2017-08-03T15:13:12.234Z,12.93
2017-08-03T15:15:39.978Z,13.97
2017-08-03T15:18:07.637Z,10.20
2017-08-03T15:20:35.444Z,11.30
2017-08-03T15:23:03.099Z,14.40
2017-08-03T15:25:30.705Z,12.73
2017-08-03T15:27:58.396Z,18.57
2017-08-03T15:30:26.097Z,10.97
2017-08-03T15:32:53.833Z,13.13
2017-08-03T15:35:21.638Z,15.00
2017-08-03T15:38:03.252Z,20.30
2017-08-03T15:40:30.890Z,10.40
2017-08-03T15:42:58.504Z,15.83
2017-08-03T15:45:26.362Z,15.77
2017-08-03T15:47:53.985Z,16.60
2017-08-03T15:50:21.587Z,11.47
2017-08-03T15:52:49.219Z,13.43
2017-08-03T15:55:16.795Z,9.63
2017-08-03T15:57:44.458Z,14.90
2017-08-03T16:00:12.081Z,17.80
2017-08-03T16:02:39.668Z,15.73
2017-08-03T16:05:07.228Z,14.07
2017-08-03T16:07:34.992Z,18.77
2017-08-03T16:10:02.545Z,12.63
2017-08-03T16:12:30.108Z,12.93
2017-08-03T16:14:58.120Z,19.80
2017-08-03T16:17:25.676Z,17.27
2017-08-03T16:19:53.340Z,11.63
2017-08-03T16:22:21.370Z,13.30
2017-08-03T16:24:49.998Z,16.67
2017-08-03T16:27:17.681Z,13.67
2017-08-03T16:29:45.317Z,17.80
2017-08-03T16:32:12.982Z,16.03
2017-08-03T16:34:40.772Z,16.43
2017-08-03T16:37:08.428Z,20.53
2017-08-03T16:39:35.973Z,13.20
2017-08-03T16:42:03.594Z,16.60
2017-08-03T16:44:31.275Z,17.30
2017-08-03T16:46:59.236Z,15.90
2017-08-03T16:49:27.009Z,14.43
2017-08-03T16:51:54.791Z,12.70
2017-08-03T16:54:22.452Z,14.13
2017-08-03T16:56:50.088Z,12.23
2017-08-03T16:59:18.160Z,14.30
2017-08-03T17:01:45.932Z,14.20
2017-08-03T17:04:13.699Z,16.40
2017-08-03T17:06:41.583Z,21.60
2017-08-03T17:09:09.203Z,20.80
2017-08-03T17:11:37.377Z,14.50
2017-08-03T17:14:04.986Z,19.57
2017-08-03T17:16:32.614Z,15.87
2017-08-03T17:19:00.365Z,18.30
2017-08-03T17:21:27.968Z,21.63
2017-08-03T17:23:55.622Z,21.70
2017-08-03T17:26:23.472Z,13.13
2017-08-03T17:28:51.177Z,15.70
2017-08-03T17:31:18.770Z,17.20
2017-08-03T17:33:46.477Z,11.97
2017-08-03T17:36:15.362Z,19.53
2017-08-03T17:38:42.994Z,17.70
2017-08-03T17:41:10.563Z,17.73
2017-08-03T17:43:38.165Z,21.73
2017-08-03T17:46:05.717Z,29.17
2017-08-03T17:48:33.642Z,20.03
2017-08-03T17:51:01.235Z,29.50
2017-08-03T17:53:28.773Z,18.60
2017-08-03T17:55:57.370Z,17.60
2017-08-03T17:58:25.087Z,17.43
2017-08-03T18:00:52.952Z,15.27
2017-08-03T18:03:21.079Z,14.13
2017-08-03T18:05:48.739Z,17.07
2017-08-03T18:08:16.573Z,18.83
2017-08-03T18:10:44.456Z,17.10
2017-08-03T18:13:12.108Z,15.07
2017-08-03T18:15:39.698Z,14.87
2017-08-03T18:18:07.473Z,15.97
2017-08-03T18:20:35.265Z,14.43
2017-08-03T18:23:03.206Z,19.10
2017-08-03T18:25:31.837Z,16.40
2017-08-03T18:28:01.912Z,21.00
2017-08-03T18:30:29.533Z,15.67
2017-08-03T18:32:57.228Z,16.70
2017-08-03T18:35:24.798Z,18.77
2017-08-03T18:37:52.429Z,17.47
2017-08-03T18:40:19.998Z,16.37
2017-08-03T18:42:47.710Z,15.00
2017-08-03T18:45:15.350Z,21.80
2017-08-03T18:47:43.049Z,19.40
2017-08-03T18:50:10.668Z,21.87
2017-08-03T18:52:38.773Z,20.00
2017-08-03T18:55:06.353Z,17.63
2017-08-03T18:57:33.949Z,17.40
2017-08-03T19:00:01.515Z,21.60
2017-08-03T19:02:29.117Z,13.60
2017-08-03T19:04:56.769Z,16.87
2017-08-03T19:07:24.457Z,17.73
2017-08-03T19:09:52.068Z,21.87
2017-08-03T19:12:19.664Z,20.93
2017-08-03T19:14:47.197Z,16.27
2017-08-03T19:17:14.845Z,25.27
2017-08-03T19:19:42.456Z,20.10
2017-08-03T19:22:10.062Z,24.07
2017-08-03T19:27:07.752Z,20.47
2017-08-03T19:29:35.528Z,18.57
2017-08-03T19:32:03.092Z,20.60
2017-08-03T19:34:30.834Z,15.17
2017-08-03T19:36:58.506Z,12.57
2017-08-03T19:39:26.113Z,17.13
2017-08-03T19:41:53.673Z,15.33
2017-08-03T19:44:21.345Z,19.00
2017-08-03T19:46:48.915Z,16.00
2017-08-03T19:49:16.472Z,21.20
2017-08-03T19:51:44.100Z,18.10
2017-08-03T19:54:11.942Z,17.37
2017-08-03T19:56:40.504Z,15.47
2017-08-03T19:59:08.101Z,12.97
2017-08-03T20:01:35.662Z,21.27
2017-08-03T20:04:03.311Z,17.20
2017-08-03T20:06:30.956Z,19.50
2017-08-03T20:09:11.369Z,23.47
2017-08-03T20:11:39.350Z,12.27
2017-08-03T20:14:06.951Z,13.40
2017-08-03T20:16:34.687Z,15.63
2017-08-03T20:19:02.581Z,16.00
2017-08-03T20:21:30.214Z,15.27
2017-08-03T20:23:57.788Z,15.80
2017-08-03T20:26:25.737Z,12.00
2017-08-03T20:28:53.964Z,20.47
2017-08-03T20:31:21.690Z,12.90
2017-08-03T20:33:49.368Z,16.50
2017-08-03T20:36:17.922Z,16.73
2017-08-03T20:38:45.763Z,20.57
2017-08-03T20:41:13.422Z,14.60
2017-08-03T20:43:41.360Z,21.13
2017-08-03T20:46:09.029Z,14.50
2017-08-03T20:48:37.015Z,16.00
2017-08-03T20:51:04.723Z,17.23
2017-08-03T20:53:32.384Z,16.40
2017-08-03T20:56:00.002Z,18.80
2017-08-03T20:58:27.814Z,17.47
2017-08-03T21:00:55.515Z,22.37
2017-08-03T21:03:23.292Z,18.30
2017-08-03T21:05:50.889Z,20.77
2017-08-03T21:08:18.674Z,13.70
2017-08-03T21:10:46.721Z,19.87
2017-08-03T21:13:14.348Z,21.00
2017-08-03T21:15:41.960Z,19.03
2017-08-03T21:18:12.711Z,15.57
2017-08-03T21:20:48.994Z,16.27
2017-08-03T21:23:19.193Z,19.60
2017-08-03T21:25:50.744Z,16.13
2017-08-03T21:28:18.683Z,17.23
2017-08-03T21:30:46.734Z,16.70
2017-08-03T21:33:17.172Z,14.60
2017-08-03T21:35:46.449Z,17.63
2017-08-03T21:38:17.241Z,20.73
2017-08-03T21:40:44.793Z,14.83
2017-08-03T21:43:18.081Z,15.63
2017-08-03T21:45:48.058Z,16.27
2017-08-03T21:48:24.440Z,14.63
2017-08-03T21:50:54.438Z,15.73
2017-08-03T21:53:22.034Z,15.37
2017-08-03T21:55:50.212Z,19.00
2017-08-03T21:58:18.645Z,24.10
2017-08-03T22:00:58.343Z,16.87
2017-08-03T22:03:30.181Z,14.23
2017-08-03T22:05:57.908Z,15.07
2017-08-03T22:08:27.244Z,15.67
2017-08-03T22:11:00.301Z,17.23
2017-08-03T22:13:31.596Z,14.70
2017-08-03T22:15:59.196Z,21.23
2017-08-03T22:18:26.943Z,8.27
2017-08-03T22:20:54.597Z,10.70
2017-08-03T22:23:22.155Z,7.67
2017-08-03T22:25:49.830Z,8.60
2017-08-03T22:28:18.509Z,13.00
2017-08-03T22:30:46.057Z,9.17
2017-08-03T22:33:17.769Z,8.80
2017-08-03T22:35:45.580Z,10.60
2017-08-03T22:38:13.293Z,10.20
2017-08-03T22:40:40.914Z,9.40
2017-08-03T22:43:08.537Z,9.63
2017-08-03T22:45:36.094Z,13.30
2017-08-03T22:48:03.660Z,6.73
2017-08-03T22:50:31.308Z,16.17
2017-08-03T22:52:58.885Z,12.63
2017-08-03T22:55:26.461Z,8.43
2017-08-03T22:57:54.397Z,9.83
2017-08-03T23:00:22.545Z,7.13
2017-08-03T23:02:50.131Z,7.37
2017-08-03T23:05:18.038Z,8.33
2017-08-03T23:07:45.635Z,6.10
2017-08-03T23:10:15.703Z,6.93
2017-08-03T23:12:45.103Z,9.37
2017-08-03T23:15:12.856Z,6.97
2017-08-03T23:17:48.636Z,9.57
2017-08-03T23:20:18.522Z,9.27
2017-08-03T23:22:46.241Z,8.10
2017-08-03T23:25:13.919Z,10.43
2017-08-03T23:27:42.499Z,6.93
2017-08-03T23:30:11.207Z,10.10
2017-08-03T23:32:40.169Z,8.93
2017-08-03T23:35:07.909Z,11.10
2017-08-03T23:37:35.777Z,9.83
2017-08-03T23:40:03.344Z,9.70
2017-08-03T23:42:32.038Z,8.03
2017-08-03T23:45:01.120Z,13.07
2017-08-03T23:47:29.792Z,7.37
2017-08-03T23:50:01.786Z,7.97
2017-08-03T23:52:29.341Z,10.03
2017-08-03T23:54:56.965Z,18.10
2017-08-03T23:57:24.967Z,7.27
2017-08-03T23:59:52.972Z,12.10
